createdAt,value
2022-10-01T00:01:15.731Z,100246.31
2022-10-01T00:03:44.913Z,100244.59
2022-10-01T00:06:14.723Z,100243.75
2022-10-01T00:08:42.377Z,100239.50
2022-10-01T00:11:11.977Z,100221.72
2022-10-01T00:13:43.775Z,100223.03
2022-10-01T00:16:13.702Z,100231.63
2022-10-01T00:18:42.702Z,100206.56
2022-10-01T00:21:14.842Z,100205.72
2022-10-01T00:23:46.151Z,100189.47
2022-10-01T00:26:18.198Z,100183.22
2022-10-01T00:28:47.598Z,100195.75
2022-10-01T00:31:15.903Z,100186.63
2022-10-01T00:33:47.090Z,100184.06
2022-10-01T00:36:13.678Z,100169.69
2022-10-01T00:38:40.761Z,100167.97
2022-10-01T00:41:08.069Z,100173.38
2022-10-01T00:43:59.866Z,100165.44
2022-10-01T00:46:41.075Z,100173.72
2022-10-01T00:49:15.071Z,100156.78
2022-10-01T00:51:45.565Z,100162.03
2022-10-01T00:54:16.944Z,100146.63
2022-10-01T00:56:44.724Z,100154.75
2022-10-01T00:59:12.807Z,100169.16
2022-10-01T01:01:39.451Z,100170.84
2022-10-01T01:04:16.821Z,100159.84
2022-10-01T01:06:55.760Z,100159.00
2022-10-01T01:09:25.808Z,100163.56
2022-10-01T01:12:07.801Z,100150.03
2022-10-01T01:15:01.700Z,100146.47
2022-10-01T01:17:40.377Z,100143.94
2022-10-01T01:20:19.084Z,100130.72
2022-10-01T01:22:59.723Z,100127.63
2022-10-01T01:25:36.769Z,100122.38
2022-10-01T01:28:20.009Z,100119.66
2022-10-01T01:30:50.651Z,100097.00
2022-10-01T01:33:20.705Z,100102.41
2022-10-01T01:35:53.023Z,100041.84
2022-10-01T01:38:27.951Z,100014.94
2022-10-01T01:40:58.521Z,99992.75
2022-10-01T01:43:31.327Z,99980.56
2022-10-01T01:46:01.228Z,100011.34
2022-10-01T01:48:30.791Z,100010.66
2022-10-01T01:51:11.782Z,100031.31
2022-10-01T01:53:43.028Z,100040.44
2022-10-01T01:56:09.700Z,100044.16
2022-10-01T01:58:37.867Z,100045.00
2022-10-01T02:01:05.098Z,100053.81
2022-10-01T02:03:35.009Z,100040.97
2022-10-01T02:06:19.171Z,100046.91
2022-10-01T02:09:11.335Z,100047.91
2022-10-01T02:11:50.428Z,100026.41
2022-10-01T02:14:30.905Z,100020.31
2022-10-01T02:17:06.055Z,100003.06
2022-10-01T02:19:48.813Z,100014.75
2022-10-01T02:22:23.707Z,99999.34
2022-10-01T02:24:59.879Z,99998.50
2022-10-01T02:27:33.251Z,99985.13
2022-10-01T02:30:07.797Z,99980.72
2022-10-01T02:32:37.819Z,99982.75
2022-10-01T02:35:09.569Z,99982.06
2022-10-01T02:37:37.687Z,99982.06
2022-10-01T02:40:08.690Z,99961.41
2022-10-01T02:42:37.728Z,99955.16
2022-10-01T02:45:10.159Z,99957.88
2022-10-01T02:47:41.694Z,99959.72
2022-10-01T02:50:09.421Z,99960.56
2022-10-01T02:52:45.356Z,99948.88
2022-10-01T02:55:17.346Z,99951.72
2022-10-01T02:57:43.922Z,99964.13
2022-10-01T03:00:13.561Z,99948.72
2022-10-01T03:02:40.130Z,99960.25
2022-10-01T03:05:07.318Z,99963.78
2022-10-01T03:07:35.651Z,99947.56
2022-10-01T03:10:04.691Z,99949.94
2022-10-01T03:12:31.660Z,99948.91
2022-10-01T03:14:58.164Z,99958.91
2022-10-01T03:17:24.705Z,99941.66
2022-10-01T03:19:51.232Z,99937.94
2022-10-01T03:22:22.311Z,99945.88
2022-10-01T03:24:51.726Z,99953.16
2022-10-01T03:27:19.119Z,99939.47
2022-10-01T03:29:46.158Z,99937.44
2022-10-01T03:32:13.024Z,99925.75
2022-10-01T03:34:40.559Z,99926.44
2022-10-01T03:37:07.257Z,99933.56
2022-10-01T03:39:34.236Z,99917.16
2022-10-01T03:42:00.709Z,99936.78
2022-10-01T03:44:30.083Z,99928.50
2022-10-01T03:46:56.558Z,99925.78
2022-10-01T03:49:23.599Z,99930.34
2022-10-01T03:51:50.498Z,99937.47
2022-10-01T03:54:18.396Z,99938.31
2022-10-01T03:56:44.919Z,99935.78
2022-10-01T03:59:11.410Z,99932.03
2022-10-01T04:01:39.376Z,99931.88
2022-10-01T04:04:07.162Z,99946.44
2022-10-01T04:06:33.718Z,99938.16
2022-10-01T04:09:00.212Z,99941.53
2022-10-01T04:11:26.842Z,99943.75
2022-10-01T04:13:54.148Z,99945.09
2022-10-01T04:16:20.720Z,99951.22
2022-10-01T04:18:47.253Z,99949.88
2022-10-01T04:21:15.330Z,99954.44
2022-10-01T04:23:46.337Z,99951.72
2022-10-01T04:26:12.918Z,99953.41
2022-10-01T04:28:39.419Z,99946.81
2022-10-01T04:31:24.620Z,99953.94
2022-10-01T04:33:56.255Z,99944.63
2022-10-01T04:36:24.490Z,99949.03
2022-10-01T04:38:53.358Z,99943.44
2022-10-01T04:41:21.323Z,99958.53
2022-10-01T04:43:50.989Z,99966.31
2022-10-01T04:46:17.884Z,99960.72
2022-10-01T04:48:44.454Z,99967.84
2022-10-01T04:51:11.089Z,99964.97
2022-10-01T04:53:55.518Z,99967.50
2022-10-01T04:56:22.131Z,99972.44
2022-10-01T04:58:49.106Z,99975.97
2022-10-01T05:01:15.626Z,99985.66
2022-10-01T05:03:44.245Z,99981.75
2022-10-01T05:06:10.766Z,99980.91
2022-10-01T05:08:37.960Z,99980.91
2022-10-01T05:11:04.813Z,99979.03
2022-10-01T05:13:31.865Z,99987.84
2022-10-01T05:16:02.993Z,99978.88
2022-10-01T05:18:30.155Z,99986.88
2022-10-01T05:20:56.655Z,100001.09
2022-10-01T05:23:23.125Z,100006.34
2022-10-01T05:25:51.109Z,100020.59
2022-10-01T05:28:22.215Z,100018.56
2022-10-01T05:30:50.960Z,100017.19
2022-10-01T05:33:17.497Z,100008.91
2022-10-01T05:35:45.494Z,100009.59
2022-10-01T05:38:12.012Z,100022.97
2022-10-01T05:40:38.502Z,100018.22
2022-10-01T05:43:04.975Z,100025.00
2022-10-01T05:45:32.363Z,100031.28
2022-10-01T05:48:01.326Z,100024.84
2022-10-01T05:50:31.389Z,100031.97
2022-10-01T05:52:58.193Z,100035.34
2022-10-01T05:55:25.083Z,100044.19
2022-10-01T05:58:02.341Z,100041.47
2022-10-01T06:00:30.867Z,100048.59
2022-10-01T06:03:00.788Z,100052.69
2022-10-01T06:05:29.471Z,100060.31
2022-10-01T06:07:56.461Z,100062.84
2022-10-01T06:10:24.538Z,100054.38
2022-10-01T06:12:51.628Z,100065.06
2022-10-01T06:15:21.961Z,100062.00
2022-10-01T06:17:48.428Z,100067.25
2022-10-01T06:20:19.388Z,100065.22
2022-10-01T06:22:53.902Z,100063.19
2022-10-01T06:25:21.949Z,100079.47
2022-10-01T06:27:57.807Z,100074.56
2022-10-01T06:30:27.195Z,100077.94
2022-10-01T06:33:03.864Z,100080.50
2022-10-01T06:35:34.838Z,100082.88
2022-10-01T06:38:04.746Z,100081.50
2022-10-01T06:40:31.345Z,100086.75
2022-10-01T06:42:58.683Z,100089.47
2022-10-01T06:45:29.658Z,100092.69
2022-10-01T06:48:03.601Z,100087.13
2022-10-01T06:50:31.530Z,100079.69
2022-10-01T06:52:58.886Z,100096.28
2022-10-01T06:55:30.047Z,100091.38
2022-10-01T06:58:05.457Z,100082.91
2022-10-01T07:00:32.916Z,100083.56
2022-10-01T07:02:59.572Z,100088.31
2022-10-01T07:05:27.910Z,100091.19
2022-10-01T07:07:54.537Z,100096.09
2022-10-01T07:10:23.136Z,100103.06
2022-10-01T07:12:50.445Z,100113.41
2022-10-01T07:15:21.112Z,100114.09
2022-10-01T07:17:50.214Z,100114.59
2022-10-01T07:20:19.782Z,100109.84
2022-10-01T07:22:48.724Z,100111.34
2022-10-01T07:25:15.621Z,100117.28
2022-10-01T07:27:42.114Z,100122.22
2022-10-01T07:30:09.122Z,100120.88
2022-10-01T07:32:35.590Z,100118.81
2022-10-01T07:35:03.575Z,100123.06
2022-10-01T07:37:30.077Z,100130.16
2022-10-01T07:39:56.534Z,100134.72
2022-10-01T07:42:22.998Z,100130.47
2022-10-01T07:44:51.029Z,100130.44
2022-10-01T07:47:17.487Z,100139.56
2022-10-01T07:49:43.955Z,100145.16
2022-10-01T07:52:13.285Z,100145.09
2022-10-01T07:54:40.260Z,100149.00
2022-10-01T07:57:06.701Z,100157.47
2022-10-01T07:59:33.447Z,100167.00
2022-10-01T08:02:00.910Z,100163.94
2022-10-01T08:04:46.081Z,100172.97
2022-10-01T08:07:12.555Z,100176.72
2022-10-01T08:09:39.760Z,100174.16
2022-10-01T08:12:06.277Z,100174.16
2022-10-01T08:14:34.932Z,100172.63
2022-10-01T08:17:01.463Z,100180.06
2022-10-01T08:19:28.066Z,100186.53
2022-10-01T08:21:54.521Z,100193.84
2022-10-01T08:24:25.386Z,100195.72
2022-10-01T08:26:55.878Z,100195.53
2022-10-01T08:29:22.437Z,100205.25
2022-10-01T08:31:49.107Z,100212.06
2022-10-01T08:34:20.209Z,100208.81
2022-10-01T08:36:51.656Z,100209.13
2022-10-01T08:39:18.538Z,100216.75
2022-10-01T08:41:54.041Z,100216.59
2022-10-01T08:44:27.792Z,100222.03
2022-10-01T08:47:00.844Z,100217.59
2022-10-01T08:49:34.407Z,100238.69
2022-10-01T08:52:15.632Z,100238.19
2022-10-01T08:54:48.221Z,100227.50
2022-10-01T08:57:38.352Z,100226.47
2022-10-01T09:00:11.692Z,100225.63
2022-10-01T09:02:40.664Z,100228.84
2022-10-01T09:05:25.328Z,100215.72
2022-10-01T09:08:06.815Z,100222.84
2022-10-01T09:10:49.797Z,100231.97
2022-10-01T09:14:00.655Z,100238.03
2022-10-01T09:16:36.320Z,100236.44
2022-10-01T09:19:31.828Z,100240.28
2022-10-01T09:21:58.296Z,100244.78
2022-10-01T09:24:50.022Z,100250.13
2022-10-01T09:27:21.470Z,100250.38
2022-10-01T09:30:07.457Z,100256.88
2022-10-01T09:32:46.832Z,100263.25
2022-10-01T09:35:23.854Z,100266.19
2022-10-01T09:38:02.204Z,100256.72
2022-10-01T09:40:46.284Z,100259.66
2022-10-01T09:43:12.998Z,100270.13
2022-10-01T09:45:41.003Z,100275.19
2022-10-01T09:48:26.435Z,100275.84
2022-10-01T09:50:59.051Z,100280.56
2022-10-01T09:56:42.477Z,100276.22
2022-10-01T09:59:17.305Z,100272.66
2022-10-01T10:01:51.820Z,100280.66
2022-10-01T10:04:23.279Z,100281.69
2022-10-01T10:07:01.393Z,100278.97
2022-10-01T10:09:33.622Z,100281.50
2022-10-01T10:12:00.902Z,100283.38
2022-10-01T10:14:35.122Z,100289.88
2022-10-01T10:17:11.141Z,100286.97
2022-10-01T10:19:38.397Z,100289.69
2022-10-01T10:22:23.183Z,100299.94
2022-10-01T10:24:50.344Z,100291.94
2022-10-01T10:27:26.587Z,100313.13
2022-10-01T10:30:13.628Z,100306.34
2022-10-01T10:32:41.577Z,100312.72
2022-10-01T10:35:14.135Z,100323.06
2022-10-01T10:37:54.725Z,100332.16
2022-10-01T10:40:29.330Z,100335.06
2022-10-01T10:42:58.606Z,100331.63
2022-10-01T10:45:33.233Z,100332.88
2022-10-01T10:48:01.878Z,100341.25
2022-10-01T10:50:32.387Z,100356.63
2022-10-01T10:52:59.252Z,100339.59
2022-10-01T10:55:30.967Z,100351.06
2022-10-01T10:58:11.667Z,100353.78
2022-10-01T11:00:46.263Z,100360.97
2022-10-01T11:03:15.613Z,100356.91
2022-10-01T11:05:43.502Z,100368.59
2022-10-01T11:08:18.931Z,100362.16
2022-10-01T11:11:02.169Z,100358.84
2022-10-01T11:13:43.773Z,100369.78
2022-10-01T11:16:19.016Z,100370.06
2022-10-01T11:18:45.442Z,100378.78
2022-10-01T11:21:42.062Z,100375.72
2022-10-01T11:24:33.138Z,100380.16
2022-10-01T11:27:40.990Z,100384.13
2022-10-01T11:30:15.357Z,100395.91
2022-10-01T11:32:47.875Z,100397.22
2022-10-01T11:35:40.043Z,100395.78
2022-10-01T11:38:18.893Z,100399.88
2022-10-01T11:41:01.070Z,100401.38
2022-10-01T11:46:38.504Z,100412.25
2022-10-01T11:49:14.581Z,100411.28
2022-10-01T11:51:49.746Z,100411.81
2022-10-01T11:54:23.866Z,100410.03
2022-10-01T11:57:13.874Z,100420.50
2022-10-01T11:59:56.185Z,100424.22
2022-10-01T12:02:33.315Z,100425.97
2022-10-01T12:05:22.932Z,100428.06
2022-10-01T12:08:18.859Z,100443.00
2022-10-01T12:10:59.163Z,100451.84
2022-10-01T12:13:32.936Z,100451.22
2022-10-01T12:16:18.695Z,100471.38
2022-10-01T12:18:54.403Z,100472.72
2022-10-01T12:21:29.806Z,100475.28
2022-10-01T12:24:05.582Z,100473.53
2022-10-01T12:26:32.362Z,100478.13
2022-10-01T12:29:06.758Z,100477.00
2022-10-01T12:31:53.789Z,100479.28
2022-10-01T12:34:38.715Z,100478.63
2022-10-01T12:37:33.184Z,100485.97
2022-10-01T12:40:18.715Z,100497.25
2022-10-01T12:42:54.241Z,100494.91
2022-10-01T12:46:06.572Z,100493.44
2022-10-01T12:49:08.683Z,100505.38
2022-10-01T12:51:52.444Z,100503.94
2022-10-01T12:54:41.778Z,100505.34
2022-10-01T12:57:36.809Z,100510.06
2022-10-01T13:00:13.382Z,100526.84
2022-10-01T13:02:53.366Z,100505.22
2022-10-01T13:05:43.498Z,100516.88
2022-10-01T13:08:16.103Z,100526.56
2022-10-01T13:11:20.636Z,100509.34
2022-10-01T13:13:53.851Z,100523.50
2022-10-01T13:16:48.113Z,100513.28
2022-10-01T13:19:48.105Z,100526.31
2022-10-01T13:22:28.366Z,100535.53
2022-10-01T13:25:18.841Z,100538.44
2022-10-01T13:28:16.856Z,100541.78
2022-10-01T13:31:14.879Z,100555.22
2022-10-01T13:34:01.727Z,100558.44
2022-10-01T13:36:30.637Z,100558.44
2022-10-01T13:38:57.394Z,100561.34
2022-10-01T13:41:29.054Z,100575.38
2022-10-01T13:44:21.897Z,100577.94
2022-10-01T13:46:55.882Z,100578.19
2022-10-01T13:49:26.830Z,100590.63
2022-10-01T13:51:54.650Z,100589.03
2022-10-01T13:54:29.581Z,100592.59
2022-10-01T13:57:07.717Z,100601.28
2022-10-01T13:59:36.278Z,100606.00
2022-10-01T14:02:03.993Z,100609.19
2022-10-01T14:04:43.664Z,100604.66
2022-10-01T14:07:26.545Z,100622.88
2022-10-01T14:09:57.859Z,100626.94
2022-10-01T14:12:49.498Z,100629.00
2022-10-01T14:15:42.823Z,100631.16
2022-10-01T14:18:20.851Z,100640.03
2022-10-01T14:21:12.321Z,100642.22
2022-10-01T14:24:03.216Z,100643.59
2022-10-01T14:26:53.930Z,100650.84
2022-10-01T14:29:45.231Z,100648.59
2022-10-01T14:32:33.406Z,100651.13
2022-10-01T14:35:30.393Z,100654.06
2022-10-01T14:38:03.190Z,100650.78
2022-10-01T14:40:41.386Z,100656.06
2022-10-01T14:43:46.191Z,100661.53
2022-10-01T14:46:16.527Z,100657.41
2022-10-01T14:48:44.210Z,100670.03
2022-10-01T14:51:26.931Z,100660.78
2022-10-01T14:53:58.737Z,100660.59
2022-10-01T14:56:27.026Z,100670.03
2022-10-01T14:59:02.663Z,100661.53
2022-10-01T15:01:29.264Z,100666.03
2022-10-01T15:03:57.769Z,100669.53
2022-10-01T15:06:30.308Z,100678.66
2022-10-01T15:09:14.892Z,100686.56
2022-10-01T15:11:44.671Z,100688.63
2022-10-01T15:14:18.813Z,100690.41
2022-10-01T15:16:46.259Z,100689.09
2022-10-01T15:19:19.858Z,100695.28
2022-10-01T15:21:53.412Z,100698.53
2022-10-01T15:24:31.840Z,100708.13
2022-10-01T15:26:58.814Z,100700.13
2022-10-01T15:29:25.406Z,100712.63
2022-10-01T15:31:53.612Z,100707.91
2022-10-01T15:34:23.900Z,100710.34
2022-10-01T15:36:51.266Z,100708.31
2022-10-01T15:39:38.361Z,100714.47
2022-10-01T15:42:31.853Z,100719.16
2022-10-01T15:45:26.042Z,100720.72
2022-10-01T15:47:57.296Z,100726.53
2022-10-01T15:50:32.630Z,100733.56
2022-10-01T15:53:06.149Z,100738.53
2022-10-01T15:55:49.420Z,100743.50
2022-10-01T15:58:19.911Z,100749.31
2022-10-01T16:01:13.694Z,100754.63
2022-10-01T16:03:50.446Z,100754.47
2022-10-01T16:06:24.273Z,100765.25
2022-10-01T16:09:15.876Z,100768.69
2022-10-01T16:12:18.601Z,100772.13
2022-10-01T16:15:26.559Z,100783.56
2022-10-01T16:18:02.433Z,100781.00
2022-10-01T16:20:56.340Z,100785.28
2022-10-01T16:23:50.086Z,100790.22
2022-10-01T16:26:32.373Z,100792.78
2022-10-01T16:29:14.603Z,100801.47
2022-10-01T16:31:45.247Z,100806.59
2022-10-01T16:34:18.618Z,100798.06
2022-10-01T16:36:46.354Z,100804.22
2022-10-01T16:39:14.989Z,100812.75
2022-10-01T16:41:56.595Z,100812.06
2022-10-01T16:44:38.632Z,100812.38
2022-10-01T16:47:05.245Z,100826.34
2022-10-01T16:49:31.780Z,100831.28
2022-10-01T16:51:58.239Z,100838.09
2022-10-01T16:54:26.769Z,100839.47
2022-10-01T16:56:55.130Z,100848.84
2022-10-01T16:59:23.202Z,100859.22
2022-10-01T17:01:53.528Z,100858.88
2022-10-01T17:04:21.115Z,100865.69
2022-10-01T17:06:48.138Z,100867.03
2022-10-01T17:09:14.616Z,100875.53
2022-10-01T17:11:42.204Z,100875.72
2022-10-01T17:14:16.702Z,100877.75
2022-10-01T17:16:43.887Z,100885.41
2022-10-01T17:19:10.782Z,100889.31
2022-10-01T17:21:39.905Z,100901.56
2022-10-01T17:24:32.832Z,100898.78
2022-10-01T17:26:59.315Z,100902.69
2022-10-01T17:29:26.678Z,100914.75
2022-10-01T17:31:53.631Z,100911.69
2022-10-01T17:34:22.027Z,100916.56
2022-10-01T17:36:48.562Z,100920.47
2022-10-01T17:39:15.071Z,100924.53
2022-10-01T17:41:41.538Z,100930.47
2022-10-01T17:44:09.710Z,100934.69
2022-10-01T17:46:36.551Z,100946.78
2022-10-01T17:49:03.418Z,100939.09
2022-10-01T17:51:29.962Z,100940.75
2022-10-01T17:53:57.565Z,100944.44
2022-10-01T17:56:24.113Z,100945.41
2022-10-01T17:58:53.137Z,100956.91
2022-10-01T18:01:21.927Z,100960.44
2022-10-01T18:03:56.123Z,100960.34
2022-10-01T18:06:24.041Z,100962.97
2022-10-01T18:08:55.504Z,100964.59
2022-10-01T18:11:25.073Z,100961.50
2022-10-01T18:13:53.536Z,100973.88
2022-10-01T18:16:20.705Z,100979.94
2022-10-01T18:19:51.883Z,100991.25
2022-10-01T18:21:34.347Z,100992.59
2022-10-01T18:24:04.750Z,100988.63
2022-10-01T18:26:32.280Z,100990.63
2022-10-01T18:28:59.023Z,100993.66
2022-10-01T18:31:27.542Z,101006.72
2022-10-01T18:33:59.533Z,101004.31
2022-10-01T18:36:32.124Z,101011.03
2022-10-01T18:39:28.022Z,101020.66
2022-10-01T18:41:54.529Z,101022.84
2022-10-01T18:44:22.890Z,101027.00
2022-10-01T18:46:54.838Z,101029.13
2022-10-01T18:49:43.205Z,101034.88
2022-10-01T18:52:37.932Z,101034.16
2022-10-01T18:55:25.265Z,101039.75
2022-10-01T18:58:18.185Z,101047.91
2022-10-01T19:01:20.871Z,101043.19
2022-10-01T19:04:14.383Z,101051.19
2022-10-01T19:06:46.090Z,101051.88
2022-10-01T19:09:32.803Z,101058.16
2022-10-01T19:12:33.038Z,101068.03
2022-10-01T19:15:07.121Z,101061.44
2022-10-01T19:17:50.117Z,101071.44
2022-10-01T19:20:46.235Z,101070.59
2022-10-01T19:23:12.785Z,101077.19
2022-10-01T19:25:57.207Z,101081.75
2022-10-01T19:28:29.716Z,101083.94
2022-10-01T19:31:01.246Z,101084.22
2022-10-01T19:33:33.363Z,101081.81
2022-10-01T19:36:01.573Z,101083.94
2022-10-01T19:38:40.005Z,101088.41
2022-10-01T19:41:20.433Z,101084.94
2022-10-01T19:44:04.286Z,101086.09
2022-10-01T19:46:40.798Z,101092.69
2022-10-01T19:49:08.499Z,101096.53
2022-10-01T19:51:39.607Z,101100.72
2022-10-01T19:54:16.933Z,101104.28
2022-10-01T19:56:48.534Z,101107.00
2022-10-01T19:59:19.764Z,101102.41
2022-10-01T20:02:03.565Z,101107.41
2022-10-01T20:04:40.264Z,101110.53
2022-10-01T20:07:30.034Z,101113.81
2022-10-01T20:10:05.759Z,101117.13
2022-10-01T20:12:46.954Z,101118.69
2022-10-01T20:15:30.539Z,101123.25
2022-10-01T20:18:33.980Z,101120.41
2022-10-01T20:21:06.052Z,101123.81
2022-10-01T20:24:07.517Z,101131.41
2022-10-01T20:27:02.714Z,101137.69
2022-10-01T20:29:38.298Z,101131.41
2022-10-01T20:32:10.726Z,101136.84
2022-10-01T20:35:03.870Z,101134.13
2022-10-01T20:37:48.485Z,101139.56
2022-10-01T20:40:27.775Z,101136.69
2022-10-01T20:43:09.858Z,101142.97
2022-10-01T20:45:39.229Z,101141.84
2022-10-01T20:48:17.777Z,101153.69
2022-10-01T20:50:47.402Z,101155.56
2022-10-01T20:53:22.133Z,101152.13
2022-10-01T20:56:01.657Z,101155.72
2022-10-01T20:58:44.491Z,101159.56
2022-10-01T21:01:32.661Z,101162.44
2022-10-01T21:04:06.459Z,101159.88
2022-10-01T21:06:42.119Z,101165.41
2022-10-01T21:09:35.354Z,101158.41
2022-10-01T21:12:07.490Z,101164.72
2022-10-01T21:14:40.607Z,101171.28
2022-10-01T21:17:39.492Z,101168.16
2022-10-01T21:20:24.483Z,101167.75
2022-10-01T21:23:28.419Z,101172.75
2022-10-01T21:25:57.810Z,101170.31
2022-10-01T21:28:54.610Z,101182.34
2022-10-01T21:31:24.657Z,101186.91
2022-10-01T21:34:41.361Z,101183.78
2022-10-01T21:37:16.372Z,101182.78
2022-10-01T21:39:56.895Z,101181.06
2022-10-01T21:42:35.489Z,101192.91
2022-10-01T21:45:20.670Z,101197.63
2022-10-01T21:47:49.881Z,101198.63
2022-10-01T21:50:22.101Z,101193.06
2022-10-01T21:53:28.059Z,101201.34
2022-10-01T21:56:20.446Z,101207.78
2022-10-01T21:59:06.705Z,101207.63
2022-10-01T22:01:44.079Z,101205.06
2022-10-01T22:04:40.174Z,101206.06
2022-10-01T22:07:28.113Z,101211.50
2022-10-01T22:10:13.514Z,101220.50
2022-10-01T22:12:45.473Z,101218.63
2022-10-01T22:15:23.651Z,101212.34
2022-10-01T22:17:53.638Z,101214.06
2022-10-01T22:20:24.128Z,101220.34
2022-10-01T22:22:56.491Z,101219.50
2022-10-01T22:25:23.193Z,101237.66
2022-10-01T22:28:05.091Z,101228.78
2022-10-01T22:30:36.733Z,101225.06
2022-10-01T22:33:14.580Z,101233.22
2022-10-01T22:35:48.901Z,101235.78
2022-10-01T22:38:21.310Z,101234.94
2022-10-01T22:41:01.528Z,101243.06
2022-10-01T22:43:28.350Z,101239.34
2022-10-01T22:46:30.010Z,101235.94
2022-10-01T22:49:03.451Z,101236.06
2022-10-01T22:51:37.645Z,101240.94
2022-10-01T22:54:22.830Z,101241.50
2022-10-01T22:57:07.400Z,101245.34
2022-10-01T22:59:49.215Z,101244.63
2022-10-01T23:02:29.141Z,101240.22
2022-10-01T23:05:14.549Z,101246.63
2022-10-01T23:07:51.941Z,101245.03
2022-10-01T23:10:29.486Z,101250.47
2022-10-01T23:13:19.326Z,101244.31
2022-10-01T23:15:52.596Z,101257.03
2022-10-01T23:18:36.624Z,101251.75
2022-10-01T23:21:35.083Z,101258.16
2022-10-01T23:24:11.951Z,101253.31
2022-10-01T23:26:44.194Z,101254.03
2022-10-01T23:29:28.932Z,101255.78
2022-10-01T23:32:17.161Z,101253.91
2022-10-01T23:35:28.323Z,101262.91
2022-10-01T23:38:18.474Z,101256.50
2022-10-01T23:40:48.142Z,101269.91
2022-10-01T23:43:35.482Z,101264.50
2022-10-01T23:46:19.295Z,101269.91
2022-10-01T23:48:56.090Z,101276.91
2022-10-01T23:51:34.308Z,101294.78
2022-10-01T23:54:15.558Z,101335.34
2022-10-01T23:57:07.256Z,101334.50
2022-10-01T23:59:48.758Z,101332.63
